Scroll down
FLIGHT INFORMATION
Alaska Airlines

ASA68

At Arrival Gate

KGPI
 KJAC
DATE: 2020-01-03
GATE:  -
GATE DEPARTURE: 01:37
TAKEOFF: 18:59
DATE: 2020-01-04
GATE:  -
LANDING: 20:00
GATE ARRIVAL: 20:17
FLIGHT DATA
Crew: 
Speed: 
466 kts
Altitude: 
38,013 ft
Stage Length: 
318.2 nm
Block Time: 
1.4 hrs
Flight Time: 
1 hrs
Fuel Used: 
5,452 lb
Cleared Route: 
TRACK DATA
50,000 ft 1,000 kts
AIRCRAFT INFO AND CUMULATIVE STATS
Aircraft Type: 
B739SSW
Registration: 
SELCAL: 
MSN/LN: 
33679 / 1344
Operator: 
Total Flights: 
14
Total Block Time: 
20 hrs
Total Flight Time: 
16.9 hrs
Total Fuel Time: 
142,026 lb
DATALINK LOG | Newest first | Current as of: 2021-05-18 22:56:32
LABEL SEQUENCE CONTENT Dn/Up
5U5932KGPI 022340Z 0300/0324 25008KT P6SM FEW060 FM030300 19006KT P6SM VCSH OVC040 FM030600 17006KT 3SM -SN BR BKN015 OVC020 FM031500 VRB04KT P6SM VCSH SCT015 BKN020 OVC030 FM032000 18004KT P6SM FEW040 SCT060▲ Up
5U5932KJAC 022321Z 0300/0324 21015G22KT P6SM VCSH OVC040 TEMPO 0300/0303 5SM -SN SCT014 OVC030 FM030300 21012KT P6SM VCSH SCT025 OVC060 FM031000 21010KT 4SM -SN SCT015 OVC030▲ Up
5S5449KGPI KJAC▼ Dn
2U5831KJAC 030256Z 21010KT 9SM -SN BKN034 OVC044 M03/M08 A2997 RMK AO2 SNB07 SLP201 P0000 60000 T10331083 53018▲ Up
2U5831KGPI 030255Z 19006KT 10SM BKN110 M01/M07 A2998 RMK AO2 SLP177 T10111072 51014▲ Up
2S5441KGPI KJAC▼ Dn
A35730CLEARED TO KJAC VIA KILLY1 EYCHO SKOTT V231 MSO V86 CPN V257 DLN V21 DBS JAC. SQUAWK 5530.▲ Up
A35638CLEARED TO KJAC VIA KILLY1 EYCHO SKOTT V231 MSO V86 CPN V257 DLN V21 DBS JAC. SQUAWK 6474.▲ Up
Q05528[LINK ACK]▲ Up
Q05044[LINK TEST]▼ Dn


AIRCRAFT HISTORY
FLIGHT DATE FLIGHT NO. ORIGIN DESTINATION CLEARED ROUTE BLOCK TIME FLIGHT TIME FUEL USED PILOT
2020-11-13ASA901KSEA KBUR KSEA NEVJO SUMMA SMIGE SUNBE FRA REBRG MMTLY CRUUE EEAZY HIHWY MAIDD PEPRZ HEVVY ROKKR ZEPPE IVINS MIKEI RW082.1 hrs1.9 hrs11,576 lbDan Downs
2020-07-14ASA1202KPDX KSEA KPDX COUGA KRIEG KSEA0.7 hrs0.6 hrs4,211 lbMichael Roth
2020-05-23ASA522KPAE KPDX 0.9 hrs0.6 hrs5,096 lbCharles Harris
2020-02-01ASA201KIDA KPAE 1.7 hrs1.5 hrs8,300 lbJhan Jensen
2020-01-23ASA327KRNO KIDA 1.7 hrs1.6 hrs9,136 lbJhan Jensen
2020-01-15ASA99KEGE KRNO 1.9 hrs1.6 hrs9,698 lbJhan Jensen
2020-01-11ASA182KJAC KEGE 1.2 hrs0.9 hrs6,449 lbJhan Jensen
2020-01-03ASA68KGPI KJAC 1.4 hrs1 hrs5,452 lbJhan Jensen
2020-01-03ASA67CYYC KGPI 0.8 hrs0.7 hrs4,803 lbJhan Jensen
2019-11-24ASA1124KLAX CYYC 1.1 hrs0.8 hrs41,517 lbRandall Smith
2019-11-24ASA9722KSAN KLAX 0.6 hrs0.4 hrs3,440 lbKyle Weber
2019-11-24ASA135KSLC KSAN 1.6 hrs1.5 hrs8,755 lbJhan Jensen
2019-11-16ASA172KSEA KSLC 1.8 hrs1.6 hrs9,842 lbJhan Jensen
2019-11-07ASA955KLAS KSEA 2.5 hrs2.3 hrs13,750 lbAllan Burek